메인 페이지
METAR-TAF:

METAR-TAF

공항 :

조모 케냐타 국제공항

나이로비, 케냐

위도: 01-19S, 경도: 036-55E, 고도: 1624m

현재 날씨관측

예보는 41분 전, 22:00시(UTC)에 발표되었습니다.
3kt
온도 15°C
습도 100%
기압 1023 hPa
시정 10km 이상
고도 800ft 상공 구름 조금
고도 1600ft 상공 구름 많음

METAR: HKJK 182200Z 26003KT 9999 FEW008 BKN016 15/15 Q1023

시각: 01:41 (22:41 UTC)

예보

예보는 5 시간 41분 전, 17:00시(UTC)에 발표되었습니다.
예보 대상 시간: 18일 18시부터 19일 24시까지 (UTC)
여러 방향의 바람 5kt
시정 10km 이상
고도 1700ft 상공 구름 많음
일시적
19일 00시부터 19일 06시까지 (UTC)
시정: 3000m
고도 600ft 상공 구름 많음
고도 1600ft 상공 흐림
약한이슬비, 박무
전환 중
19일 08시부터 19일 11시까지 (UTC)
5kt
시정 10km 이상
고도 1000ft 상공 구름 조금
고도 2000ft 상공 구름 많음
전환 중
19일 12시부터 19일 15시까지 (UTC)
고도 2000ft 상공 구름 많음
전환 중
19일 20시부터 19일 23시까지 (UTC)
여러 방향의 바람 5kt
고도 1700ft 상공 구름 많음

TAF: HKJK 181700Z 1818/1924 VRB05KT 9999 BKN017 TEMPO 1900/1906 3000 -DZ BR BKN006 OVC016 BECMG 1908/1911 17005KT 9999 FEW010 BKN020 BECMG 1912/1915 BKN020 BECMG 1920/1923 VRB05KT BKN017

4,000개 이상의 공항 관측 자료 및 예보 (METAR 및 TAF 보고).

지도상에서 검색 가능한 기상관측소가 노란 점과 빨간 점으로 표시되어 있습니다.

기상관측소 명을 보려면 표시 위로 마우스를 이동하세요.

날씨 관측과 예보를 보려면 클릭하세요.

지도 변경 : 확대하려면 엑스 표시가 있는 녹색 버튼, 축소하려면 빼기 표시가 있는 녹색 버튼, 다음 페이지의 지도를 보려면 녹색 화살표를 클릭하세요.


METAR-TAF: